sensor_id;sensor_type;location;lat;lon;timestamp;P1;durP1;ratioP1;P2;durP2;ratioP2
78744;SDS011;68064;53.100;8.824;2023-08-01T00:01:52;4.15;;;0.50;;
78744;SDS011;68064;53.100;8.824;2023-08-01T00:03:56;4.43;;;0.50;;
78744;SDS011;68064;53.100;8.824;2023-08-01T00:04:58;3.67;;;0.52;;
78744;SDS011;68064;53.100;8.824;2023-08-01T00:05:59;4.65;;;0.65;;
78744;SDS011;68064;53.100;8.824;2023-08-01T00:07:00;3.42;;;0.40;;
78744;SDS011;68064;53.100;8.824;2023-08-01T00:09:02;3.75;;;0.30;;
78744;SDS011;68064;53.100;8.824;2023-08-01T00:10:04;4.25;;;0.77;;
78744;SDS011;68064;53.100;8.824;2023-08-01T00:11:07;3.75;;;0.60;;
78744;SDS011;68064;53.100;8.824;2023-08-01T00:12:09;3.25;;;0.40;;
78744;SDS011;68064;53.100;8.824;2023-08-01T00:13:10;5.53;;;1.08;;
78744;SDS011;68064;53.100;8.824;2023-08-01T00:14:11;6.90;;;1.85;;
78744;SDS011;68064;53.100;8.824;2023-08-01T00:16:14;5.55;;;1.20;;
78744;SDS011;68064;53.100;8.824;2023-08-01T00:17:15;3.33;;;0.40;;
78744;SDS011;68064;53.100;8.824;2023-08-01T00:19:19;4.18;;;0.50;;
78744;SDS011;68064;53.100;8.824;2023-08-01T00:20:20;5.22;;;0.90;;
78744;SDS011;68064;53.100;8.824;2023-08-01T00:21:21;6.18;;;0.95;;
78744;SDS011;68064;53.100;8.824;2023-08-01T00:22:23;5.15;;;0.82;;
78744;SDS011;68064;53.100;8.824;2023-08-01T00:23:25;5.68;;;1.20;;
78744;SDS011;68064;53.100;8.824;2023-08-01T00:24:27;5.70;;;1.08;;
78744;SDS011;68064;53.100;8.824;2023-08-01T00:25:28;4.40;;;0.90;;
78744;SDS011;68064;53.100;8.824;2023-08-01T00:26:29;5.00;;;1.13;;
78744;SDS011;68064;53.100;8.824;2023-08-01T00:28:33;4.15;;;0.90;;
78744;SDS011;68064;53.100;8.824;2023-08-01T00:29:34;6.20;;;1.30;;
78744;SDS011;68064;53.100;8.824;2023-08-01T00:30:35;4.80;;;0.77;;
78744;SDS011;68064;53.100;8.824;2023-08-01T00:32:38;4.68;;;0.60;;
78744;SDS011;68064;53.100;8.824;2023-08-01T00:33:40;6.18;;;1.25;;
78744;SDS011;68064;53.100;8.824;2023-08-01T00:34:43;4.00;;;0.57;;
78744;SDS011;68064;53.100;8.824;2023-08-01T00:35:52;7.20;;;1.08;;
78744;SDS011;68064;53.100;8.824;2023-08-01T00:36:56;7.07;;;0.85;;
78744;SDS011;68064;53.100;8.824;2023-08-01T00:37:57;4.78;;;0.80;;
78744;SDS011;68064;53.100;8.824;2023-08-01T00:41:15;6.53;;;1.38;;
78744;SDS011;68064;53.100;8.824;2023-08-01T00:42:18;6.72;;;1.13;;
78744;SDS011;68064;53.100;8.824;2023-08-01T00:43:19;4.45;;;0.43;;
78744;SDS011;68064;53.100;8.824;2023-08-01T00:45:22;4.40;;;0.63;;
78744;SDS011;68064;53.100;8.824;2023-08-01T00:46:24;7.53;;;1.58;;
78744;SDS011;68064;53.100;8.824;2023-08-01T00:48:28;5.97;;;1.13;;
78744;SDS011;68064;53.100;8.824;2023-08-01T00:49:31;10.07;;;1.13;;
78744;SDS011;68064;53.100;8.824;2023-08-01T00:50:34;5.80;;;1.02;;
78744;SDS011;68064;53.100;8.824;2023-08-01T00:51:37;6.50;;;1.33;;
78744;SDS011;68064;53.100;8.824;2023-08-01T00:52:39;4.18;;;0.60;;
78744;SDS011;68064;53.100;8.824;2023-08-01T00:53:40;6.47;;;0.90;;
78744;SDS011;68064;53.100;8.824;2023-08-01T00:55:42;5.53;;;0.63;;
78744;SDS011;68064;53.100;8.824;2023-08-01T00:56:45;6.95;;;1.05;;
78744;SDS011;68064;53.100;8.824;2023-08-01T00:57:46;4.05;;;0.43;;
78744;SDS011;68064;53.100;8.824;2023-08-01T00:59:48;5.25;;;0.75;;
78744;SDS011;68064;53.100;8.824;2023-08-01T01:00:50;6.35;;;1.10;;
78744;SDS011;68064;53.100;8.824;2023-08-01T01:01:52;4.07;;;0.57;;
78744;SDS011;68064;53.100;8.824;2023-08-01T01:03:54;5.65;;;1.25;;
78744;SDS011;68064;53.100;8.824;2023-08-01T01:06:01;5.65;;;0.88;;
78744;SDS011;68064;53.100;8.824;2023-08-01T01:07:07;4.70;;;0.50;;
78744;SDS011;68064;53.100;8.824;2023-08-01T01:08:09;5.95;;;0.63;;
78744;SDS011;68064;53.100;8.824;2023-08-01T01:10:20;6.97;;;0.82;;
78744;SDS011;68064;53.100;8.824;2023-08-01T01:11:24;5.38;;;0.57;;
78744;SDS011;68064;53.100;8.824;2023-08-01T01:12:25;7.00;;;0.80;;
78744;SDS011;68064;53.100;8.824;2023-08-01T01:13:28;6.75;;;0.93;;
78744;SDS011;68064;53.100;8.824;2023-08-01T01:14:30;5.13;;;1.05;;
78744;SDS011;68064;53.100;8.824;2023-08-01T01:15:31;6.03;;;0.98;;
78744;SDS011;68064;53.100;8.824;2023-08-01T01:16:34;5.82;;;0.95;;
78744;SDS011;68064;53.100;8.824;2023-08-01T01:17:37;6.22;;;0.77;;
78744;SDS011;68064;53.100;8.824;2023-08-01T01:18:38;5.05;;;0.95;;
78744;SDS011;68064;53.100;8.824;2023-08-01T01:19:41;7.55;;;0.70;;
78744;SDS011;68064;53.100;8.824;2023-08-01T01:21:45;5.28;;;0.75;;
78744;SDS011;68064;53.100;8.824;2023-08-01T01:22:48;5.60;;;1.15;;
78744;SDS011;68064;53.100;8.824;2023-08-01T01:23:51;5.25;;;0.63;;
78744;SDS011;68064;53.100;8.824;2023-08-01T01:24:55;6.40;;;1.05;;
78744;SDS011;68064;53.100;8.824;2023-08-01T01:25:57;7.25;;;0.80;;
78744;SDS011;68064;53.100;8.824;2023-08-01T01:26:59;5.22;;;0.93;;
78744;SDS011;68064;53.100;8.824;2023-08-01T01:28:02;4.55;;;0.85;;
78744;SDS011;68064;53.100;8.824;2023-08-01T01:29:05;6.75;;;2.40;;
78744;SDS011;68064;53.100;8.824;2023-08-01T01:30:07;7.00;;;2.03;;
78744;SDS011;68064;53.100;8.824;2023-08-01T01:31:09;5.18;;;0.70;;
78744;SDS011;68064;53.100;8.824;2023-08-01T01:32:11;6.20;;;0.70;;
78744;SDS011;68064;53.100;8.824;2023-08-01T01:33:13;6.82;;;1.17;;
78744;SDS011;68064;53.100;8.824;2023-08-01T01:34:16;6.97;;;1.75;;
78744;SDS011;68064;53.100;8.824;2023-08-01T01:35:18;6.00;;;0.90;;
78744;SDS011;68064;53.100;8.824;2023-08-01T01:36:22;7.40;;;1.50;;
78744;SDS011;68064;53.100;8.824;2023-08-01T01:37:25;4.90;;;0.75;;
78744;SDS011;68064;53.100;8.824;2023-08-01T01:38:26;5.80;;;0.82;;
78744;SDS011;68064;53.100;8.824;2023-08-01T01:39:28;5.82;;;1.30;;
78744;SDS011;68064;53.100;8.824;2023-08-01T01:40:31;5.50;;;0.73;;
78744;SDS011;68064;53.100;8.824;2023-08-01T01:41:35;6.07;;;0.90;;
78744;SDS011;68064;53.100;8.824;2023-08-01T01:42:36;5.45;;;0.90;;
78744;SDS011;68064;53.100;8.824;2023-08-01T01:43:38;6.22;;;1.05;;
78744;SDS011;68064;53.100;8.824;2023-08-01T01:45:40;6.75;;;0.93;;
78744;SDS011;68064;53.100;8.824;2023-08-01T01:46:42;8.38;;;1.48;;
78744;SDS011;68064;53.100;8.824;2023-08-01T01:47:43;6.65;;;0.88;;
78744;SDS011;68064;53.100;8.824;2023-08-01T01:48:45;6.78;;;1.30;;
78744;SDS011;68064;53.100;8.824;2023-08-01T01:50:47;7.03;;;1.52;;
78744;SDS011;68064;53.100;8.824;2023-08-01T01:51:50;5.85;;;1.67;;
78744;SDS011;68064;53.100;8.824;2023-08-01T01:52:51;5.22;;;0.85;;
78744;SDS011;68064;53.100;8.824;2023-08-01T01:53:53;9.35;;;1.77;;
78744;SDS011;68064;53.100;8.824;2023-08-01T01:54:54;6.05;;;1.13;;
78744;SDS011;68064;53.100;8.824;2023-08-01T01:56:57;4.00;;;0.47;;
78744;SDS011;68064;53.100;8.824;2023-08-01T01:57:59;4.97;;;1.00;;
78744;SDS011;68064;53.100;8.824;2023-08-01T01:59:01;5.38;;;0.82;;
78744;SDS011;68064;53.100;8.824;2023-08-01T02:00:03;6.18;;;1.15;;
78744;SDS011;68064;53.100;8.824;2023-08-01T02:01:06;4.53;;;0.70;;
78744;SDS011;68064;53.100;8.824;2023-08-01T02:02:09;7.03;;;1.23;;
78744;SDS011;68064;53.100;8.824;2023-08-01T02:04:11;6.53;;;0.60;;
78744;SDS011;68064;53.100;8.824;2023-08-01T02:05:13;6.22;;;1.10;;
78744;SDS011;68064;53.100;8.824;2023-08-01T02:06:14;4.70;;;0.63;;
78744;SDS011;68064;53.100;8.824;2023-08-01T02:07:18;6.40;;;1.10;;
78744;SDS011;68064;53.100;8.824;2023-08-01T02:08:19;5.78;;;1.00;;
78744;SDS011;68064;53.100;8.824;2023-08-01T02:09:20;6.22;;;1.30;;
78744;SDS011;68064;53.100;8.824;2023-08-01T02:10:22;6.45;;;0.68;;
78744;SDS011;68064;53.100;8.824;2023-08-01T02:12:25;5.53;;;0.75;;
78744;SDS011;68064;53.100;8.824;2023-08-01T02:13:27;7.25;;;1.15;;
78744;SDS011;68064;53.100;8.824;2023-08-01T02:14:30;7.10;;;0.95;;
78744;SDS011;68064;53.100;8.824;2023-08-01T02:15:32;6.68;;;1.30;;
78744;SDS011;68064;53.100;8.824;2023-08-01T02:16:33;5.97;;;0.93;;
78744;SDS011;68064;53.100;8.824;2023-08-01T02:17:34;5.13;;;1.15;;
78744;SDS011;68064;53.100;8.824;2023-08-01T02:18:35;6.47;;;1.13;;
78744;SDS011;68064;53.100;8.824;2023-08-01T02:19:39;9.25;;;1.45;;
78744;SDS011;68064;53.100;8.824;2023-08-01T02:20:40;6.28;;;1.23;;
78744;SDS011;68064;53.100;8.824;2023-08-01T02:22:45;5.43;;;0.60;;
78744;SDS011;68064;53.100;8.824;2023-08-01T02:23:47;7.10;;;1.48;;
78744;SDS011;68064;53.100;8.824;2023-08-01T02:24:49;6.78;;;1.00;;
78744;SDS011;68064;53.100;8.824;2023-08-01T02:25:51;6.68;;;1.52;;
78744;SDS011;68064;53.100;8.824;2023-08-01T02:26:52;6.50;;;1.30;;
78744;SDS011;68064;53.100;8.824;2023-08-01T02:27:54;5.50;;;0.73;;
78744;SDS011;68064;53.100;8.824;2023-08-01T02:29:57;6.25;;;1.50;;
78744;SDS011;68064;53.100;8.824;2023-08-01T02:30:58;7.07;;;1.10;;
78744;SDS011;68064;53.100;8.824;2023-08-01T02:32:01;7.80;;;1.80;;
78744;SDS011;68064;53.100;8.824;2023-08-01T02:33:04;6.38;;;1.05;;
78744;SDS011;68064;53.100;8.824;2023-08-01T02:34:05;7.65;;;1.88;;
78744;SDS011;68064;53.100;8.824;2023-08-01T02:35:06;5.80;;;0.90;;
78744;SDS011;68064;53.100;8.824;2023-08-01T02:36:09;6.25;;;0.80;;
78744;SDS011;68064;53.100;8.824;2023-08-01T02:38:13;6.72;;;1.00;;
78744;SDS011;68064;53.100;8.824;2023-08-01T02:39:14;6.60;;;1.35;;
78744;SDS011;68064;53.100;8.824;2023-08-01T02:41:16;6.03;;;0.75;;
78744;SDS011;68064;53.100;8.824;2023-08-01T02:42:18;6.75;;;1.55;;
78744;SDS011;68064;53.100;8.824;2023-08-01T02:44:20;4.50;;;0.65;;
78744;SDS011;68064;53.100;8.824;2023-08-01T02:45:21;5.47;;;0.80;;
78744;SDS011;68064;53.100;8.824;2023-08-01T02:46:22;8.35;;;2.22;;
78744;SDS011;68064;53.100;8.824;2023-08-01T02:47:23;6.25;;;1.08;;
78744;SDS011;68064;53.100;8.824;2023-08-01T02:48:25;7.22;;;1.80;;
78744;SDS011;68064;53.100;8.824;2023-08-01T02:49:26;8.40;;;1.58;;
78744;SDS011;68064;53.100;8.824;2023-08-01T02:50:27;5.70;;;1.35;;
78744;SDS011;68064;53.100;8.824;2023-08-01T02:51:28;6.75;;;1.48;;
78744;SDS011;68064;53.100;8.824;2023-08-01T02:52:29;6.35;;;0.93;;
78744;SDS011;68064;53.100;8.824;2023-08-01T02:54:33;7.65;;;1.13;;
78744;SDS011;68064;53.100;8.824;2023-08-01T02:55:35;8.15;;;1.88;;
78744;SDS011;68064;53.100;8.824;2023-08-01T02:56:37;8.13;;;1.33;;
78744;SDS011;68064;53.100;8.824;2023-08-01T02:57:38;6.88;;;0.95;;
78744;SDS011;68064;53.100;8.824;2023-08-01T02:58:40;7.18;;;1.88;;
78744;SDS011;68064;53.100;8.824;2023-08-01T02:59:41;7.60;;;1.55;;
78744;SDS011;68064;53.100;8.824;2023-08-01T03:01:44;5.50;;;0.82;;
78744;SDS011;68064;53.100;8.824;2023-08-01T03:02:46;5.95;;;1.20;;
78744;SDS011;68064;53.100;8.824;2023-08-01T03:04:48;8.98;;;2.08;;
78744;SDS011;68064;53.100;8.824;2023-08-01T03:05:50;10.35;;;2.92;;
78744;SDS011;68064;53.100;8.824;2023-08-01T03:06:52;7.53;;;1.73;;
78744;SDS011;68064;53.100;8.824;2023-08-01T03:08:56;8.45;;;1.40;;
78744;SDS011;68064;53.100;8.824;2023-08-01T03:09:57;6.18;;;1.35;;
78744;SDS011;68064;53.100;8.824;2023-08-01T03:12:00;5.57;;;0.63;;
78744;SDS011;68064;53.100;8.824;2023-08-01T03:13:03;7.53;;;1.83;;
78744;SDS011;68064;53.100;8.824;2023-08-01T03:14:06;6.57;;;0.88;;
78744;SDS011;68064;53.100;8.824;2023-08-01T03:15:09;7.93;;;1.30;;
78744;SDS011;68064;53.100;8.824;2023-08-01T03:16:10;6.50;;;1.77;;
78744;SDS011;68064;53.100;8.824;2023-08-01T03:17:11;6.43;;;1.10;;
78744;SDS011;68064;53.100;8.824;2023-08-01T03:18:13;8.68;;;1.90;;
78744;SDS011;68064;53.100;8.824;2023-08-01T03:19:15;6.95;;;1.58;;
78744;SDS011;68064;53.100;8.824;2023-08-01T03:20:16;7.28;;;1.70;;
78744;SDS011;68064;53.100;8.824;2023-08-01T03:22:18;8.02;;;2.00;;
78744;SDS011;68064;53.100;8.824;2023-08-01T03:24:21;5.80;;;0.73;;
78744;SDS011;68064;53.100;8.824;2023-08-01T03:25:23;9.05;;;2.00;;
78744;SDS011;68064;53.100;8.824;2023-08-01T03:26:24;11.18;;;2.53;;
78744;SDS011;68064;53.100;8.824;2023-08-01T03:28:27;10.98;;;1.85;;
78744;SDS011;68064;53.100;8.824;2023-08-01T03:30:29;5.35;;;0.68;;
78744;SDS011;68064;53.100;8.824;2023-08-01T03:31:32;7.97;;;1.85;;
78744;SDS011;68064;53.100;8.824;2023-08-01T03:33:34;9.07;;;1.65;;
78744;SDS011;68064;53.100;8.824;2023-08-01T03:34:36;6.65;;;1.42;;
78744;SDS011;68064;53.100;8.824;2023-08-01T03:35:38;8.40;;;1.75;;
78744;SDS011;68064;53.100;8.824;2023-08-01T03:37:40;8.55;;;1.85;;
78744;SDS011;68064;53.100;8.824;2023-08-01T03:38:41;8.30;;;1.63;;
78744;SDS011;68064;53.100;8.824;2023-08-01T03:39:44;6.93;;;1.70;;
78744;SDS011;68064;53.100;8.824;2023-08-01T03:40:45;10.13;;;3.20;;
78744;SDS011;68064;53.100;8.824;2023-08-01T03:41:47;7.43;;;1.40;;
78744;SDS011;68064;53.100;8.824;2023-08-01T03:43:49;8.07;;;1.30;;
78744;SDS011;68064;53.100;8.824;2023-08-01T03:44:50;10.88;;;3.33;;
78744;SDS011;68064;53.100;8.824;2023-08-01T03:45:52;7.20;;;1.38;;
78744;SDS011;68064;53.100;8.824;2023-08-01T03:47:55;9.82;;;1.90;;
78744;SDS011;68064;53.100;8.824;2023-08-01T03:48:56;10.70;;;2.70;;
78744;SDS011;68064;53.100;8.824;2023-08-01T03:50:58;6.85;;;0.77;;
78744;SDS011;68064;53.100;8.824;2023-08-01T03:52:00;8.48;;;1.95;;
78744;SDS011;68064;53.100;8.824;2023-08-01T03:54:04;9.00;;;1.55;;
78744;SDS011;68064;53.100;8.824;2023-08-01T03:55:08;10.07;;;2.78;;
78744;SDS011;68064;53.100;8.824;2023-08-01T03:56:09;9.93;;;3.35;;
78744;SDS011;68064;53.100;8.824;2023-08-01T03:58:12;9.60;;;3.00;;
78744;SDS011;68064;53.100;8.824;2023-08-01T03:59:14;8.60;;;1.70;;
78744;SDS011;68064;53.100;8.824;2023-08-01T04:00:15;8.98;;;1.70;;
78744;SDS011;68064;53.100;8.824;2023-08-01T04:01:17;9.30;;;1.88;;
78744;SDS011;68064;53.100;8.824;2023-08-01T04:03:18;7.72;;;1.67;;
78744;SDS011;68064;53.100;8.824;2023-08-01T04:04:20;7.28;;;1.33;;
78744;SDS011;68064;53.100;8.824;2023-08-01T04:05:21;8.55;;;2.08;;
78744;SDS011;68064;53.100;8.824;2023-08-01T04:06:23;11.48;;;3.50;;
78744;SDS011;68064;53.100;8.824;2023-08-01T04:08:25;9.98;;;2.58;;
78744;SDS011;68064;53.100;8.824;2023-08-01T04:10:29;7.35;;;1.25;;
78744;SDS011;68064;53.100;8.824;2023-08-01T04:11:30;9.25;;;2.05;;
78744;SDS011;68064;53.100;8.824;2023-08-01T04:13:33;8.95;;;1.48;;
78744;SDS011;68064;53.100;8.824;2023-08-01T04:14:34;9.73;;;1.67;;
78744;SDS011;68064;53.100;8.824;2023-08-01T04:16:36;9.85;;;3.00;;
78744;SDS011;68064;53.100;8.824;2023-08-01T04:17:37;10.73;;;2.95;;
78744;SDS011;68064;53.100;8.824;2023-08-01T04:18:38;12.80;;;3.08;;
78744;SDS011;68064;53.100;8.824;2023-08-01T04:19:40;10.57;;;3.45;;
78744;SDS011;68064;53.100;8.824;2023-08-01T04:20:41;8.32;;;2.30;;
78744;SDS011;68064;53.100;8.824;2023-08-01T04:21:42;7.68;;;1.95;;
78744;SDS011;68064;53.100;8.824;2023-08-01T04:22:43;9.23;;;1.88;;
78744;SDS011;68064;53.100;8.824;2023-08-01T04:24:45;9.00;;;2.03;;
78744;SDS011;68064;53.100;8.824;2023-08-01T04:25:48;7.78;;;1.75;;
78744;SDS011;68064;53.100;8.824;2023-08-01T04:26:49;10.55;;;3.70;;
78744;SDS011;68064;53.100;8.824;2023-08-01T04:27:50;9.77;;;3.30;;
78744;SDS011;68064;53.100;8.824;2023-08-01T04:29:52;8.45;;;2.20;;
78744;SDS011;68064;53.100;8.824;2023-08-01T04:30:55;10.90;;;3.33;;
78744;SDS011;68064;53.100;8.824;2023-08-01T04:32:56;8.65;;;2.15;;
78744;SDS011;68064;53.100;8.824;2023-08-01T04:33:58;11.48;;;3.40;;
78744;SDS011;68064;53.100;8.824;2023-08-01T04:34:59;15.25;;;4.07;;
78744;SDS011;68064;53.100;8.824;2023-08-01T04:36:00;11.68;;;2.85;;
78744;SDS011;68064;53.100;8.824;2023-08-01T04:38:02;9.27;;;2.85;;
78744;SDS011;68064;53.100;8.824;2023-08-01T04:39:03;9.73;;;3.28;;
78744;SDS011;68064;53.100;8.824;2023-08-01T04:40:04;10.88;;;2.75;;
78744;SDS011;68064;53.100;8.824;2023-08-01T04:41:08;8.10;;;2.08;;
78744;SDS011;68064;53.100;8.824;2023-08-01T04:42:09;8.00;;;2.00;;
78744;SDS011;68064;53.100;8.824;2023-08-01T04:44:12;17.17;;;2.50;;
78744;SDS011;68064;53.100;8.824;2023-08-01T04:45:13;9.88;;;2.15;;
78744;SDS011;68064;53.100;8.824;2023-08-01T04:46:14;11.73;;;3.15;;
78744;SDS011;68064;53.100;8.824;2023-08-01T04:48:16;17.95;;;4.10;;
78744;SDS011;68064;53.100;8.824;2023-08-01T04:50:18;6.05;;;1.00;;
78744;SDS011;68064;53.100;8.824;2023-08-01T04:51:19;5.85;;;0.68;;
78744;SDS011;68064;53.100;8.824;2023-08-01T04:53:21;6.93;;;0.77;;
78744;SDS011;68064;53.100;8.824;2023-08-01T04:55:23;6.80;;;0.95;;
78744;SDS011;68064;53.100;8.824;2023-08-01T04:56:26;7.05;;;0.82;;
78744;SDS011;68064;53.100;8.824;2023-08-01T04:57:27;4.10;;;0.47;;
78744;SDS011;68064;53.100;8.824;2023-08-01T04:58:28;4.85;;;0.57;;
78744;SDS011;68064;53.100;8.824;2023-08-01T05:00:30;6.57;;;0.63;;
78744;SDS011;68064;53.100;8.824;2023-08-01T05:01:31;5.03;;;0.52;;
78744;SDS011;68064;53.100;8.824;2023-08-01T05:02:32;4.53;;;0.43;;
78744;SDS011;68064;53.100;8.824;2023-08-01T05:03:33;4.30;;;0.50;;
78744;SDS011;68064;53.100;8.824;2023-08-01T05:05:35;5.63;;;0.60;;
78744;SDS011;68064;53.100;8.824;2023-08-01T05:07:37;5.22;;;0.40;;
78744;SDS011;68064;53.100;8.824;2023-08-01T05:09:39;6.65;;;0.40;;
78744;SDS011;68064;53.100;8.824;2023-08-01T05:10:40;5.90;;;0.82;;
78744;SDS011;68064;53.100;8.824;2023-08-01T05:11:42;6.25;;;0.77;;
78744;SDS011;68064;53.100;8.824;2023-08-01T05:12:44;5.05;;;0.70;;
78744;SDS011;68064;53.100;8.824;2023-08-01T05:13:45;7.78;;;1.55;;
78744;SDS011;68064;53.100;8.824;2023-08-01T05:14:49;6.38;;;1.13;;
78744;SDS011;68064;53.100;8.824;2023-08-01T05:15:50;6.45;;;1.00;;
78744;SDS011;68064;53.100;8.824;2023-08-01T05:16:51;5.78;;;0.70;;
78744;SDS011;68064;53.100;8.824;2023-08-01T05:18:53;6.22;;;0.70;;
78744;SDS011;68064;53.100;8.824;2023-08-01T05:19:54;6.22;;;0.80;;
78744;SDS011;68064;53.100;8.824;2023-08-01T05:20:55;6.97;;;0.90;;
78744;SDS011;68064;53.100;8.824;2023-08-01T05:22:58;6.93;;;0.80;;
78744;SDS011;68064;53.100;8.824;2023-08-01T05:23:59;6.65;;;1.00;;
78744;SDS011;68064;53.100;8.824;2023-08-01T05:25:01;5.40;;;0.70;;
78744;SDS011;68064;53.100;8.824;2023-08-01T05:26:02;5.72;;;0.80;;
78744;SDS011;68064;53.100;8.824;2023-08-01T05:27:05;7.40;;;1.05;;
78744;SDS011;68064;53.100;8.824;2023-08-01T05:28:07;5.88;;;0.43;;
78744;SDS011;68064;53.100;8.824;2023-08-01T05:30:09;5.93;;;1.05;;
78744;SDS011;68064;53.100;8.824;2023-08-01T05:31:11;5.07;;;0.73;;
78744;SDS011;68064;53.100;8.824;2023-08-01T05:33:13;7.93;;;0.82;;
78744;SDS011;68064;53.100;8.824;2023-08-01T05:35:15;5.57;;;0.70;;
78744;SDS011;68064;53.100;8.824;2023-08-01T05:36:16;4.22;;;0.52;;
78744;SDS011;68064;53.100;8.824;2023-08-01T05:38:18;5.63;;;0.70;;
78744;SDS011;68064;53.100;8.824;2023-08-01T05:39:19;6.40;;;0.77;;
78744;SDS011;68064;53.100;8.824;2023-08-01T05:40:23;6.80;;;0.63;;
78744;SDS011;68064;53.100;8.824;2023-08-01T05:41:24;5.95;;;0.80;;
78744;SDS011;68064;53.100;8.824;2023-08-01T05:42:27;5.32;;;0.52;;
78744;SDS011;68064;53.100;8.824;2023-08-01T05:43:28;4.70;;;0.40;;
78744;SDS011;68064;53.100;8.824;2023-08-01T05:44:29;6.65;;;0.82;;
78744;SDS011;68064;53.100;8.824;2023-08-01T05:45:30;5.47;;;0.52;;
78744;SDS011;68064;53.100;8.824;2023-08-01T05:47:32;8.23;;;1.05;;
78744;SDS011;68064;53.100;8.824;2023-08-01T05:49:35;7.45;;;1.30;;
78744;SDS011;68064;53.100;8.824;2023-08-01T05:50:38;4.97;;;0.73;;
78744;SDS011;68064;53.100;8.824;2023-08-01T05:52:40;5.78;;;0.45;;
78744;SDS011;68064;53.100;8.824;2023-08-01T05:54:42;4.25;;;0.40;;
78744;SDS011;68064;53.100;8.824;2023-08-01T05:55:43;5.65;;;0.57;;
78744;SDS011;68064;53.100;8.824;2023-08-01T05:56:45;4.72;;;0.73;;
78744;SDS011;68064;53.100;8.824;2023-08-01T05:57:47;6.53;;;0.85;;
78744;SDS011;68064;53.100;8.824;2023-08-01T05:58:48;5.10;;;0.50;;
78744;SDS011;68064;53.100;8.824;2023-08-01T06:00:50;6.28;;;1.35;;
78744;SDS011;68064;53.100;8.824;2023-08-01T06:01:52;5.60;;;0.63;;
78744;SDS011;68064;53.100;8.824;2023-08-01T06:03:53;6.10;;;1.10;;
78744;SDS011;68064;53.100;8.824;2023-08-01T06:05:55;5.80;;;1.15;;
78744;SDS011;68064;53.100;8.824;2023-08-01T06:07:57;5.70;;;0.85;;
78744;SDS011;68064;53.100;8.824;2023-08-01T06:08:58;7.18;;;1.42;;
78744;SDS011;68064;53.100;8.824;2023-08-01T06:09:59;6.57;;;0.90;;
78744;SDS011;68064;53.100;8.824;2023-08-01T06:11:01;5.93;;;0.90;;
78744;SDS011;68064;53.100;8.824;2023-08-01T06:12:04;8.73;;;1.83;;
78744;SDS011;68064;53.100;8.824;2023-08-01T06:13:07;9.40;;;1.63;;
78744;SDS011;68064;53.100;8.824;2023-08-01T06:14:08;6.63;;;1.02;;
78744;SDS011;68064;53.100;8.824;2023-08-01T06:15:14;7.68;;;0.93;;
78744;SDS011;68064;53.100;8.824;2023-08-01T06:16:23;6.38;;;0.63;;
78744;SDS011;68064;53.100;8.824;2023-08-01T06:17:29;6.60;;;1.58;;
78744;SDS011;68064;53.100;8.824;2023-08-01T06:19:32;6.45;;;0.90;;
78744;SDS011;68064;53.100;8.824;2023-08-01T06:20:33;8.65;;;2.40;;
78744;SDS011;68064;53.100;8.824;2023-08-01T06:22:35;9.38;;;2.28;;
78744;SDS011;68064;53.100;8.824;2023-08-01T06:23:37;6.80;;;1.50;;
78744;SDS011;68064;53.100;8.824;2023-08-01T06:24:38;5.95;;;0.93;;
78744;SDS011;68064;53.100;8.824;2023-08-01T06:25:39;9.48;;;1.45;;
78744;SDS011;68064;53.100;8.824;2023-08-01T06:26:40;7.93;;;1.20;;
78744;SDS011;68064;53.100;8.824;2023-08-01T06:28:43;7.43;;;1.33;;
78744;SDS011;68064;53.100;8.824;2023-08-01T06:29:44;8.85;;;1.98;;
78744;SDS011;68064;53.100;8.824;2023-08-01T06:30:45;10.35;;;1.85;;
78744;SDS011;68064;53.100;8.824;2023-08-01T06:31:47;8.95;;;1.52;;
78744;SDS011;68064;53.100;8.824;2023-08-01T06:32:48;9.18;;;2.75;;
78744;SDS011;68064;53.100;8.824;2023-08-01T06:33:49;9.10;;;2.50;;
78744;SDS011;68064;53.100;8.824;2023-08-01T06:34:50;6.70;;;1.10;;
78744;SDS011;68064;53.100;8.824;2023-08-01T06:36:52;9.23;;;2.55;;
78744;SDS011;68064;53.100;8.824;2023-08-01T06:37:53;9.65;;;2.05;;
78744;SDS011;68064;53.100;8.824;2023-08-01T06:38:54;7.22;;;1.63;;
78744;SDS011;68064;53.100;8.824;2023-08-01T06:39:57;10.27;;;1.95;;
78744;SDS011;68064;53.100;8.824;2023-08-01T06:40:58;7.22;;;1.48;;
78744;SDS011;68064;53.100;8.824;2023-08-01T06:41:59;8.07;;;2.00;;
78744;SDS011;68064;53.100;8.824;2023-08-01T06:43:01;9.98;;;3.65;;
78744;SDS011;68064;53.100;8.824;2023-08-01T06:45:04;7.25;;;1.38;;
78744;SDS011;68064;53.100;8.824;2023-08-01T06:46:06;11.18;;;2.05;;
78744;SDS011;68064;53.100;8.824;2023-08-01T06:47:07;8.05;;;2.08;;
78744;SDS011;68064;53.100;8.824;2023-08-01T06:48:08;9.23;;;2.42;;
78744;SDS011;68064;53.100;8.824;2023-08-01T06:49:09;10.93;;;3.10;;
78744;SDS011;68064;53.100;8.824;2023-08-01T06:50:10;9.93;;;2.55;;
78744;SDS011;68064;53.100;8.824;2023-08-01T06:52:12;7.53;;;1.85;;
78744;SDS011;68064;53.100;8.824;2023-08-01T06:53:14;11.32;;;2.15;;
78744;SDS011;68064;53.100;8.824;2023-08-01T06:54:15;8.93;;;2.28;;
78744;SDS011;68064;53.100;8.824;2023-08-01T06:56:17;7.00;;;1.75;;
78744;SDS011;68064;53.100;8.824;2023-08-01T06:57:18;8.88;;;1.83;;
78744;SDS011;68064;53.100;8.824;2023-08-01T06:58:19;7.70;;;2.78;;
78744;SDS011;68064;53.100;8.824;2023-08-01T07:00:22;9.23;;;1.95;;
78744;SDS011;68064;53.100;8.824;2023-08-01T07:01:23;8.45;;;1.85;;
78744;SDS011;68064;53.100;8.824;2023-08-01T07:02:24;8.90;;;2.55;;
78744;SDS011;68064;53.100;8.824;2023-08-01T07:03:25;9.75;;;2.47;;
78744;SDS011;68064;53.100;8.824;2023-08-01T07:05:27;8.48;;;2.17;;
78744;SDS011;68064;53.100;8.824;2023-08-01T07:07:30;10.65;;;1.80;;
78744;SDS011;68064;53.100;8.824;2023-08-01T07:08:31;12.70;;;3.17;;
78744;SDS011;68064;53.100;8.824;2023-08-01T07:10:34;8.57;;;1.75;;
78744;SDS011;68064;53.100;8.824;2023-08-01T07:11:35;11.80;;;2.40;;
78744;SDS011;68064;53.100;8.824;2023-08-01T07:12:36;9.98;;;1.77;;
78744;SDS011;68064;53.100;8.824;2023-08-01T07:14:40;7.38;;;1.63;;
78744;SDS011;68064;53.100;8.824;2023-08-01T07:15:41;7.47;;;1.30;;
78744;SDS011;68064;53.100;8.824;2023-08-01T07:16:43;8.30;;;2.20;;
78744;SDS011;68064;53.100;8.824;2023-08-01T07:18:44;7.40;;;1.55;;
78744;SDS011;68064;53.100;8.824;2023-08-01T07:20:46;7.05;;;0.77;;
78744;SDS011;68064;53.100;8.824;2023-08-01T07:21:47;7.55;;;1.20;;
78744;SDS011;68064;53.100;8.824;2023-08-01T07:22:48;8.27;;;0.82;;
78744;SDS011;68064;53.100;8.824;2023-08-01T07:23:50;6.85;;;0.80;;
78744;SDS011;68064;53.100;8.824;2023-08-01T07:24:52;6.95;;;0.73;;
78744;SDS011;68064;53.100;8.824;2023-08-01T07:25:53;5.90;;;1.17;;
78744;SDS011;68064;53.100;8.824;2023-08-01T07:26:55;7.15;;;0.93;;
78744;SDS011;68064;53.100;8.824;2023-08-01T07:27:56;5.18;;;0.90;;
78744;SDS011;68064;53.100;8.824;2023-08-01T07:28:57;6.05;;;0.60;;
78744;SDS011;68064;53.100;8.824;2023-08-01T07:31:00;7.00;;;1.13;;
78744;SDS011;68064;53.100;8.824;2023-08-01T07:32:02;5.85;;;0.70;;
78744;SDS011;68064;53.100;8.824;2023-08-01T07:33:03;5.22;;;0.68;;
78744;SDS011;68064;53.100;8.824;2023-08-01T07:34:04;6.43;;;0.80;;
78744;SDS011;68064;53.100;8.824;2023-08-01T07:35:06;5.85;;;0.55;;
78744;SDS011;68064;53.100;8.824;2023-08-01T07:36:07;4.85;;;0.60;;
78744;SDS011;68064;53.100;8.824;2023-08-01T07:37:09;6.03;;;0.60;;
78744;SDS011;68064;53.100;8.824;2023-08-01T07:38:10;7.63;;;0.70;;
78744;SDS011;68064;53.100;8.824;2023-08-01T07:39:11;5.95;;;0.43;;
78744;SDS011;68064;53.100;8.824;2023-08-01T07:40:12;4.45;;;0.55;;
78744;SDS011;68064;53.100;8.824;2023-08-01T07:42:14;3.55;;;0.40;;
78744;SDS011;68064;53.100;8.824;2023-08-01T07:43:15;3.75;;;0.50;;
78744;SDS011;68064;53.100;8.824;2023-08-01T07:44:16;4.43;;;0.65;;